Time;durP1;ratioP1;P1;durP2;ratioP2;P2;SDS_P1;SDS_P2;PMS_P1;PMS_P2;Temp;Humidity;BMP_temperature;BMP_pressure;BME280_temperature;BME280_humidity;BME280_pressure;Samples;Min_cycle;Max_cycle;Signal;HPM_P1;HPM_P2
2022/05/22 00:02:06;;;;;;;;;6.67;5.33;;;;;;;;5120830;27;45450;-72
2022/05/22 00:04:32;;;;;;;;;6.00;6.00;;;;;;;;5121024;27;45387;-72
2022/05/22 00:06:57;;;;;;;;;6.33;6.00;;;;;;;;5120663;27;45344;-72
2022/05/22 00:09:22;;;;;;;;;6.00;5.33;;;;;;;;5119613;27;47438;-72
2022/05/22 00:11:48;;;;;;;;;6.00;6.00;;;;;;;;5120816;27;45307;-72
2022/05/22 00:14:14;;;;;;;;;6.67;6.00;;;;;;;;5120657;27;45548;-72
2022/05/22 00:16:42;;;;;;;;;6.00;6.00;;;;;;;;5102803;27;45209;-72
2022/05/22 00:19:07;;;;;;;;;6.67;6.67;;;;;;;;5099982;27;45370;-72
2022/05/22 00:21:33;;;;;;;;;6.33;5.33;;;;;;;;5099718;27;45435;-72
2022/05/22 00:23:58;;;;;;;;;6.67;5.67;;;;;;;;5099906;27;45242;-72
2022/05/22 00:26:23;;;;;;;;;7.67;7.67;;;;;;;;5100232;27;45226;-72
2022/05/22 00:28:48;;;;;;;;;6.00;6.00;;;;;;;;5098550;27;46291;-72
2022/05/22 00:31:14;;;;;;;;;6.67;5.00;;;;;;;;5101844;27;46158;-72
2022/05/22 00:33:39;;;;;;;;;6.00;6.00;;;;;;;;5101837;27;45344;-72
2022/05/22 00:36:05;;;;;;;;;6.33;6.00;;;;;;;;5103386;27;45531;-72
2022/05/22 00:38:30;;;;;;;;;7.00;7.00;;;;;;;;5103368;27;45428;-72
2022/05/22 00:40:55;;;;;;;;;5.00;5.00;;;;;;;;5103392;27;46392;-72
2022/05/22 00:43:27;;;;;;;;;8.00;7.00;;;;;;;;5103544;27;45328;-72
2022/05/22 00:45:52;;;;;;;;;8.00;7.67;;;;;;;;5103585;27;45473;-72
2022/05/22 00:48:17;;;;;;;;;4.67;4.67;;;;;;;;5101765;27;47509;-72
2022/05/22 00:50:42;;;;;;;;;5.00;5.00;;;;;;;;5101838;27;47030;-72
2022/05/22 00:53:08;;;;;;;;;6.67;6.67;;;;;;;;5103116;27;45802;-74
2022/05/22 00:55:33;;;;;;;;;4.00;4.00;;;;;;;;5103381;27;45134;-71
2022/05/22 00:58:01;;;;;;;;;6.00;6.00;;;;;;;;5103272;27;45647;-72
2022/05/22 01:00:28;;;;;;;;;6.67;6.67;;;;;;;;5103008;27;45359;-72
2022/05/22 01:05:40;;;;;;;;;8.00;8.00;;;;;;;;5102968;27;45281;-72
2022/05/22 01:08:05;;;;;;;;;6.67;6.33;;;;;;;;5101575;27;47327;-72
2022/05/22 01:10:51;;;;;;;;;5.67;5.67;;;;;;;;5101575;27;46168;-72
2022/05/22 01:13:18;;;;;;;;;6.67;6.67;;;;;;;;5103089;27;45355;-72
2022/05/22 01:15:44;;;;;;;;;7.00;7.00;;;;;;;;5112973;27;45295;-72
2022/05/22 01:18:09;;;;;;;;;8.00;8.00;;;;;;;;5123460;27;45302;-71
2022/05/22 01:20:35;;;;;;;;;7.00;7.00;;;;;;;;5123162;27;46303;-72
2022/05/22 01:23:00;;;;;;;;;7.00;7.00;;;;;;;;5123346;27;45344;-71
2022/05/22 01:25:25;;;;;;;;;7.00;7.00;;;;;;;;5123548;27;45447;-72
2022/05/22 01:27:51;;;;;;;;;7.00;7.00;;;;;;;;5123382;27;45313;-72
2022/05/22 01:30:22;;;;;;;;;6.33;6.33;;;;;;;;5123244;27;45380;-72
2022/05/22 01:32:48;;;;;;;;;6.00;6.00;;;;;;;;5121498;27;45398;-72
2022/05/22 01:35:18;;;;;;;;;6.00;6.00;;;;;;;;5123239;27;45317;-72
2022/05/22 01:37:43;;;;;;;;;8.00;8.00;;;;;;;;5122974;27;45483;-72
2022/05/22 01:40:09;;;;;;;;;5.67;5.00;;;;;;;;5122643;27;45261;-72
2022/05/22 01:42:35;;;;;;;;;7.33;7.33;;;;;;;;5122641;27;45294;-72
2022/05/22 01:45:00;;;;;;;;;4.00;3.00;;;;;;;;5123188;27;45544;-72
2022/05/22 01:47:25;;;;;;;;;8.00;7.33;;;;;;;;5123142;27;45191;-72
2022/05/22 01:49:50;;;;;;;;;6.33;5.67;;;;;;;;5122829;27;46913;-72
2022/05/22 01:52:16;;;;;;;;;7.33;7.33;;;;;;;;5122626;27;45502;-72
2022/05/22 01:54:41;;;;;;;;;8.00;6.67;;;;;;;;5123119;27;45267;-72
2022/05/22 01:57:06;;;;;;;;;6.33;5.67;;;;;;;;5122873;27;45475;-72
2022/05/22 01:59:31;;;;;;;;;7.67;7.00;;;;;;;;5122751;27;45275;-72
2022/05/22 02:01:57;;;;;;;;;7.00;7.00;;;;;;;;5122810;27;45315;-72
2022/05/22 02:04:22;;;;;;;;;7.00;7.00;;;;;;;;5121534;27;45454;-72
2022/05/22 02:09:31;;;;;;;;;8.33;7.00;;;;;;;;5122605;27;45804;-72
2022/05/22 02:11:56;;;;;;;;;6.33;6.00;;;;;;;;5122626;27;45283;-72
2022/05/22 02:14:22;;;;;;;;;7.00;7.00;;;;;;;;5122668;27;45265;-72
2022/05/22 02:16:47;;;;;;;;;6.00;6.00;;;;;;;;5103085;27;45301;-72
2022/05/22 02:19:12;;;;;;;;;6.00;6.00;;;;;;;;5101849;27;45486;-72
2022/05/22 02:21:37;;;;;;;;;6.33;5.67;;;;;;;;5101633;27;45275;-72
2022/05/22 02:24:03;;;;;;;;;5.00;4.00;;;;;;;;5100511;27;45259;-72
2022/05/22 02:26:28;;;;;;;;;5.00;3.67;;;;;;;;5101899;27;45457;-72
2022/05/22 02:28:53;;;;;;;;;9.33;9.33;;;;;;;;5101691;27;45269;-72
2022/05/22 02:31:18;;;;;;;;;7.00;6.67;;;;;;;;5101797;27;45365;-71
2022/05/22 02:33:43;;;;;;;;;9.33;9.33;;;;;;;;5100211;27;45400;-72
2022/05/22 02:36:13;;;;;;;;;8.33;8.33;;;;;;;;5100041;27;46053;-72
2022/05/22 02:38:39;;;;;;;;;7.00;7.00;;;;;;;;5101436;27;46906;-72
2022/05/22 02:41:10;;;;;;;;;8.00;8.00;;;;;;;;5101520;27;45254;-72
2022/05/22 02:43:35;;;;;;;;;7.00;7.00;;;;;;;;5101726;27;45338;-72
2022/05/22 02:46:00;;;;;;;;;7.33;7.33;;;;;;;;5101435;27;45310;-72
2022/05/22 02:48:25;;;;;;;;;7.00;7.00;;;;;;;;5100158;27;47124;-72
2022/05/22 02:50:51;;;;;;;;;8.00;8.00;;;;;;;;5101258;27;45353;-72
2022/05/22 02:53:16;;;;;;;;;6.00;6.00;;;;;;;;5098865;27;45346;-72
2022/05/22 02:55:43;;;;;;;;;8.00;7.33;;;;;;;;5099965;27;46108;-72
2022/05/22 02:58:09;;;;;;;;;7.00;7.00;;;;;;;;5101353;27;45597;-72
2022/05/22 03:00:34;;;;;;;;;6.67;6.67;;;;;;;;5101167;27;45281;-72
2022/05/22 03:02:59;;;;;;;;;8.00;8.00;;;;;;;;5101297;27;45354;-72
2022/05/22 03:05:26;;;;;;;;;8.67;8.00;;;;;;;;5100991;27;45245;-72
2022/05/22 03:07:51;;;;;;;;;7.33;6.00;;;;;;;;5101109;27;45238;-72
2022/05/22 03:10:17;;;;;;;;;8.33;7.00;;;;;;;;5101020;27;45314;-72
2022/05/22 03:12:42;;;;;;;;;7.33;7.33;;;;;;;;5101249;27;45203;-72
2022/05/22 03:15:10;;;;;;;;;7.00;7.00;;;;;;;;5105817;27;45268;-72
2022/05/22 03:17:36;;;;;;;;;7.67;7.67;;;;;;;;5120226;27;45976;-72
2022/05/22 03:20:01;;;;;;;;;7.00;7.00;;;;;;;;5121206;27;45306;-72
2022/05/22 03:22:26;;;;;;;;;8.00;8.00;;;;;;;;5121566;27;45281;-72
2022/05/22 03:24:51;;;;;;;;;6.33;5.00;;;;;;;;5121496;27;45352;-72
2022/05/22 03:27:17;;;;;;;;;10.00;9.00;;;;;;;;5121385;27;45373;-72
2022/05/22 03:29:43;;;;;;;;;7.00;7.00;;;;;;;;5120132;27;45255;-72
2022/05/22 03:32:09;;;;;;;;;7.67;7.67;;;;;;;;5121659;27;45344;-72
2022/05/22 03:34:34;;;;;;;;;7.67;7.67;;;;;;;;5120928;27;45511;-71
2022/05/22 03:37:00;;;;;;;;;11.00;9.67;;;;;;;;5121132;27;45968;-72
2022/05/22 03:39:26;;;;;;;;;6.33;6.33;;;;;;;;5121050;27;45235;-72
2022/05/22 03:41:51;;;;;;;;;6.33;6.33;;;;;;;;5121632;27;45350;-71
2022/05/22 03:44:16;;;;;;;;;9.67;8.67;;;;;;;;5121048;27;45324;-71
2022/05/22 03:46:42;;;;;;;;;8.67;8.67;;;;;;;;5119673;27;46993;-72
2022/05/22 03:49:07;;;;;;;;;8.00;8.00;;;;;;;;5119968;27;45260;-72
2022/05/22 03:51:32;;;;;;;;;7.33;7.33;;;;;;;;5119521;27;45235;-72
2022/05/22 03:54:00;;;;;;;;;9.00;7.00;;;;;;;;5121005;27;45221;-72
2022/05/22 03:56:26;;;;;;;;;10.00;10.00;;;;;;;;5121035;27;46118;-72
2022/05/22 03:58:51;;;;;;;;;12.33;11.00;;;;;;;;5121007;27;45302;-72
2022/05/22 04:01:16;;;;;;;;;9.33;9.33;;;;;;;;5121177;27;45344;-72
2022/05/22 04:03:42;;;;;;;;;10.00;10.00;;;;;;;;5120813;27;45509;-72
2022/05/22 04:06:08;;;;;;;;;9.33;8.67;;;;;;;;5119011;27;47243;-72
2022/05/22 04:08:34;;;;;;;;;12.00;10.00;;;;;;;;5120789;27;45339;-72
2022/05/22 04:11:10;;;;;;;;;10.67;10.33;;;;;;;;5120917;27;45246;-72
2022/05/22 04:13:35;;;;;;;;;11.67;9.67;;;;;;;;5119476;27;47479;-72
2022/05/22 04:16:01;;;;;;;;;10.33;10.00;;;;;;;;5107918;27;46296;-72
2022/05/22 04:18:26;;;;;;;;;9.00;9.00;;;;;;;;5100098;27;45289;-72
2022/05/22 04:20:51;;;;;;;;;10.67;10.67;;;;;;;;5099903;27;45272;-72
2022/05/22 04:26:00;;;;;;;;;8.67;7.67;;;;;;;;5099849;27;45759;-72
2022/05/22 04:28:26;;;;;;;;;9.33;8.33;;;;;;;;5100088;27;45263;-72
2022/05/22 04:30:52;;;;;;;;;9.00;9.00;;;;;;;;5100149;27;45314;-72
2022/05/22 04:33:17;;;;;;;;;10.33;8.67;;;;;;;;5099530;27;45262;-72
2022/05/22 04:35:43;;;;;;;;;7.33;5.33;;;;;;;;5099655;27;45250;-72
2022/05/22 04:38:09;;;;;;;;;6.33;6.33;;;;;;;;5099723;27;45360;-72
2022/05/22 04:40:34;;;;;;;;;8.67;8.67;;;;;;;;5098430;27;45397;-72
2022/05/22 04:42:59;;;;;;;;;9.33;8.00;;;;;;;;5099798;27;45475;-72
2022/05/22 04:45:24;;;;;;;;;6.67;6.67;;;;;;;;5098280;27;47159;-72
2022/05/22 04:47:49;;;;;;;;;9.00;8.00;;;;;;;;5099756;27;45289;-72
2022/05/22 04:50:16;;;;;;;;;9.33;8.00;;;;;;;;5098020;27;45417;-72
2022/05/22 04:52:41;;;;;;;;;8.33;8.33;;;;;;;;5098092;27;46547;-72
2022/05/22 04:55:06;;;;;;;;;7.33;7.33;;;;;;;;5099540;27;45537;-72
2022/05/22 04:57:32;;;;;;;;;7.00;7.00;;;;;;;;5098358;27;45313;-72
2022/05/22 04:59:57;;;;;;;;;7.00;7.00;;;;;;;;5099769;27;45342;-72
2022/05/22 05:02:23;;;;;;;;;7.33;6.33;;;;;;;;5099418;27;45284;-72
2022/05/22 05:04:51;;;;;;;;;7.67;7.67;;;;;;;;5099481;27;45976;-72
2022/05/22 05:07:16;;;;;;;;;7.67;7.67;;;;;;;;5099080;27;45305;-71
2022/05/22 05:09:41;;;;;;;;;8.00;8.00;;;;;;;;5099594;27;45358;-72
2022/05/22 05:12:07;;;;;;;;;8.00;8.00;;;;;;;;5099348;27;45515;-72
2022/05/22 05:14:32;;;;;;;;;8.00;7.67;;;;;;;;5099303;27;45338;-72
2022/05/22 05:16:57;;;;;;;;;8.33;8.33;;;;;;;;5121395;27;45456;-72
2022/05/22 05:19:22;;;;;;;;;7.00;7.00;;;;;;;;5122378;27;45329;-72
2022/05/22 05:21:48;;;;;;;;;6.33;6.33;;;;;;;;5123173;27;45514;-72
2022/05/22 05:24:13;;;;;;;;;8.00;8.00;;;;;;;;5123328;27;45337;-72
2022/05/22 05:26:38;;;;;;;;;4.67;4.67;;;;;;;;5122135;27;45574;-72
2022/05/22 05:29:03;;;;;;;;;7.00;5.00;;;;;;;;5123424;27;45267;-72
2022/05/22 05:31:29;;;;;;;;;6.67;6.67;;;;;;;;5123384;27;45226;-72
2022/05/22 05:33:54;;;;;;;;;7.67;7.00;;;;;;;;5116000;27;46259;-72
2022/05/22 05:36:19;;;;;;;;;10.00;10.00;;;;;;;;5090505;27;45289;-72
2022/05/22 05:38:45;;;;;;;;;6.00;6.00;;;;;;;;5082056;28;45387;-72
2022/05/22 05:41:10;;;;;;;;;8.00;8.00;;;;;;;;5089540;27;45335;-72
2022/05/22 05:43:37;;;;;;;;;8.33;7.33;;;;;;;;5102314;27;45323;-71
2022/05/22 05:46:02;;;;;;;;;8.00;8.00;;;;;;;;5085991;27;45454;-70
2022/05/22 05:48:27;;;;;;;;;8.00;8.00;;;;;;;;5087282;27;45571;-72
2022/05/22 05:50:55;;;;;;;;;6.00;6.00;;;;;;;;5081453;27;45386;-71
2022/05/22 05:53:20;;;;;;;;;6.00;6.00;;;;;;;;5080220;28;47181;-72
2022/05/22 05:55:47;;;;;;;;;8.00;8.00;;;;;;;;5081913;27;45280;-72
2022/05/22 05:58:13;;;;;;;;;10.33;8.67;;;;;;;;5080414;28;45318;-72
2022/05/22 06:00:38;;;;;;;;;7.00;6.67;;;;;;;;5081691;27;45469;-72
2022/05/22 06:03:03;;;;;;;;;5.00;5.00;;;;;;;;5081563;27;45227;-72
2022/05/22 06:05:28;;;;;;;;;8.00;8.00;;;;;;;;5081484;28;45314;-72
2022/05/22 06:07:54;;;;;;;;;7.33;7.33;;;;;;;;5080466;28;45270;-72
2022/05/22 06:10:20;;;;;;;;;9.00;7.00;;;;;;;;5082246;27;45544;-73
2022/05/22 06:12:46;;;;;;;;;7.00;7.00;;;;;;;;5081753;27;45505;-73
2022/05/22 06:15:11;;;;;;;;;5.67;5.33;;;;;;;;5092377;27;45352;-72
2022/05/22 06:17:38;;;;;;;;;6.33;4.00;;;;;;;;5122730;27;45351;-72
2022/05/22 06:20:06;;;;;;;;;7.00;7.00;;;;;;;;5120951;27;46798;-72
2022/05/22 06:22:34;;;;;;;;;7.00;7.00;;;;;;;;5107780;27;46228;-71
2022/05/22 06:24:59;;;;;;;;;5.33;5.33;;;;;;;;5081347;27;45376;-72
2022/05/22 06:27:24;;;;;;;;;5.00;5.00;;;;;;;;5081494;27;45347;-72
2022/05/22 06:29:50;;;;;;;;;6.00;6.00;;;;;;;;5081405;28;45374;-72
2022/05/22 06:32:16;;;;;;;;;5.00;4.00;;;;;;;;5081183;28;45293;-72
2022/05/22 06:34:42;;;;;;;;;6.00;6.00;;;;;;;;5080919;27;45386;-72
2022/05/22 06:37:11;;;;;;;;;5.00;4.33;;;;;;;;5081004;27;45276;-73
2022/05/22 06:39:49;;;;;;;;;3.00;3.00;;;;;;;;5081063;27;45595;-72
2022/05/22 06:42:16;;;;;;;;;3.33;3.00;;;;;;;;5080961;27;46008;-72
2022/05/22 06:44:41;;;;;;;;;4.33;4.33;;;;;;;;5079631;28;45373;-72
2022/05/22 06:47:06;;;;;;;;;3.00;3.00;;;;;;;;5081817;27;45468;-74
2022/05/22 06:49:32;;;;;;;;;4.67;4.00;;;;;;;;5082321;27;45440;-72
2022/05/22 06:51:58;;;;;;;;;4.33;3.33;;;;;;;;5080685;28;46715;-72
2022/05/22 06:54:23;;;;;;;;;5.67;5.67;;;;;;;;5080757;27;45398;-72
2022/05/22 06:56:48;;;;;;;;;3.00;3.00;;;;;;;;5079589;28;45437;-72
2022/05/22 06:59:14;;;;;;;;;2.67;2.67;;;;;;;;5080204;27;45425;-71
2022/05/22 07:01:39;;;;;;;;;5.00;3.67;;;;;;;;5080458;27;45436;-71
2022/05/22 07:04:05;;;;;;;;;2.33;2.33;;;;;;;;5080127;27;45460;-71
2022/05/22 07:06:30;;;;;;;;;3.33;3.33;;;;;;;;5080178;27;45413;-71
2022/05/22 07:08:55;;;;;;;;;3.67;3.33;;;;;;;;5079965;27;45405;-73
2022/05/22 07:11:39;;;;;;;;;2.67;2.67;;;;;;;;5080065;27;46301;-71
2022/05/22 07:14:08;;;;;;;;;3.67;3.00;;;;;;;;5080574;27;45319;-72
2022/05/22 07:16:33;;;;;;;;;2.00;2.00;;;;;;;;5114720;27;45344;-72
2022/05/22 07:18:59;;;;;;;;;4.00;4.00;;;;;;;;5121515;27;45257;-72
2022/05/22 07:21:24;;;;;;;;;4.00;4.00;;;;;;;;5121105;27;45427;-72
2022/05/22 07:23:50;;;;;;;;;4.00;4.00;;;;;;;;5121534;27;45366;-72
2022/05/22 07:26:16;;;;;;;;;2.33;2.33;;;;;;;;5120022;27;45388;-72
2022/05/22 07:28:41;;;;;;;;;4.00;4.00;;;;;;;;5121452;27;45385;-72
2022/05/22 07:31:12;;;;;;;;;4.00;4.00;;;;;;;;5121318;27;45443;-72
2022/05/22 07:33:37;;;;;;;;;5.00;4.00;;;;;;;;5121052;27;45209;-72
2022/05/22 07:36:03;;;;;;;;;3.00;3.00;;;;;;;;5121207;27;45280;-72
2022/05/22 07:38:28;;;;;;;;;3.67;3.67;;;;;;;;5121089;27;45260;-72
2022/05/22 07:40:53;;;;;;;;;5.00;4.00;;;;;;;;5119270;27;47148;-72
2022/05/22 07:43:19;;;;;;;;;2.00;2.00;;;;;;;;5121286;27;45271;-72
2022/05/22 07:45:44;;;;;;;;;2.00;2.00;;;;;;;;5121398;27;45596;-72
2022/05/22 07:48:09;;;;;;;;;2.67;2.00;;;;;;;;5121227;27;45409;-72
2022/05/22 07:50:34;;;;;;;;;2.67;2.00;;;;;;;;5120806;27;45437;-72
2022/05/22 07:53:00;;;;;;;;;3.00;3.00;;;;;;;;5120925;27;45380;-72
2022/05/22 07:55:25;;;;;;;;;4.67;3.67;;;;;;;;5121193;27;45278;-71
2022/05/22 07:57:51;;;;;;;;;2.67;2.67;;;;;;;;5120916;27;45550;-72
2022/05/22 08:00:17;;;;;;;;;4.33;3.67;;;;;;;;5120913;27;45546;-72
2022/05/22 08:02:43;;;;;;;;;3.67;2.67;;;;;;;;5120914;27;45321;-72
2022/05/22 08:05:08;;;;;;;;;1.00;1.00;;;;;;;;5104517;27;45345;-73
2022/05/22 08:07:34;;;;;;;;;3.00;3.00;;;;;;;;5079126;27;45602;-72
2022/05/22 08:09:59;;;;;;;;;2.67;2.67;;;;;;;;5079654;27;47449;-72
2022/05/22 08:12:25;;;;;;;;;4.33;4.33;;;;;;;;5079915;27;45278;-72
2022/05/22 08:14:51;;;;;;;;;4.00;4.00;;;;;;;;5084924;27;45416;-71
2022/05/22 08:17:19;;;;;;;;;4.00;4.00;;;;;;;;5120475;27;45251;-72
2022/05/22 08:19:44;;;;;;;;;4.00;3.67;;;;;;;;5119064;27;48234;-71
2022/05/22 08:22:09;;;;;;;;;3.00;3.00;;;;;;;;5120604;27;45269;-72
2022/05/22 08:24:35;;;;;;;;;4.00;2.33;;;;;;;;5121024;27;45586;-71
2022/05/22 08:27:00;;;;;;;;;2.00;2.00;;;;;;;;5120687;27;45654;-72
2022/05/22 08:29:25;;;;;;;;;3.67;3.00;;;;;;;;5120491;27;45450;-72
2022/05/22 08:31:50;;;;;;;;;5.00;5.00;;;;;;;;5119159;27;45309;-72
2022/05/22 08:34:16;;;;;;;;;3.33;3.33;;;;;;;;5120374;27;45339;-72
2022/05/22 08:36:42;;;;;;;;;4.00;2.33;;;;;;;;5120208;27;45287;-72
2022/05/22 08:39:07;;;;;;;;;2.00;2.00;;;;;;;;5116775;27;45488;-72
2022/05/22 08:41:35;;;;;;;;;4.00;4.00;;;;;;;;5081664;27;45456;-72
2022/05/22 08:44:06;;;;;;;;;5.00;3.00;;;;;;;;5079451;28;45369;-72
2022/05/22 08:46:36;;;;;;;;;2.33;2.00;;;;;;;;5079058;28;45437;-73
2022/05/22 08:49:05;;;;;;;;;4.00;4.00;;;;;;;;5079148;28;45239;-73
2022/05/22 08:51:40;;;;;;;;;2.67;2.67;;;;;;;;5079874;27;45325;-72
2022/05/22 08:54:24;;;;;;;;;2.67;2.67;;;;;;;;5081605;28;45271;-72
2022/05/22 08:59:37;;;;;;;;;3.33;2.00;;;;;;;;5082578;28;45284;-71
2022/05/22 09:02:15;;;;;;;;;7.00;5.00;;;;;;;;5081340;28;45332;-72
2022/05/22 09:04:45;;;;;;;;;3.33;3.33;;;;;;;;5082773;27;45392;-71
2022/05/22 09:07:14;;;;;;;;;2.00;2.00;;;;;;;;5082407;27;45428;-71
2022/05/22 09:09:41;;;;;;;;;2.67;2.67;;;;;;;;5082465;27;46223;-72
2022/05/22 09:12:08;;;;;;;;;4.33;4.33;;;;;;;;5082503;27;45454;-71
2022/05/22 09:14:39;;;;;;;;;4.00;4.00;;;;;;;;5082526;27;45302;-71
2022/05/22 09:17:13;;;;;;;;;2.67;2.67;;;;;;;;5123418;27;45324;-71
2022/05/22 09:20:03;;;;;;;;;3.33;2.67;;;;;;;;5123292;27;46396;-71
2022/05/22 09:22:32;;;;;;;;;2.00;2.00;;;;;;;;5121966;27;45358;-71
2022/05/22 09:25:11;;;;;;;;;5.00;3.00;;;;;;;;5123620;27;45471;-71
2022/05/22 09:27:46;;;;;;;;;2.00;2.00;;;;;;;;5121852;27;45543;-71
2022/05/22 09:30:11;;;;;;;;;3.00;3.00;;;;;;;;5123195;27;46111;-72
2022/05/22 09:32:39;;;;;;;;;4.00;3.00;;;;;;;;5123403;27;45369;-71
2022/05/22 09:35:05;;;;;;;;;2.67;2.67;;;;;;;;5122880;27;45336;-72
2022/05/22 09:37:52;;;;;;;;;2.33;1.00;;;;;;;;5123101;27;45447;-73
2022/05/22 09:40:36;;;;;;;;;3.00;3.00;;;;;;;;5122807;27;45426;-72
2022/05/22 09:43:06;;;;;;;;;1.00;1.00;;;;;;;;5121704;27;45248;-70
2022/05/22 09:45:40;;;;;;;;;2.33;2.33;;;;;;;;5123223;27;45286;-72
2022/05/22 09:48:24;;;;;;;;;1.00;1.00;;;;;;;;5122863;27;45333;-71
2022/05/22 09:50:52;;;;;;;;;2.00;2.00;;;;;;;;5121260;27;48089;-71
2022/05/22 09:53:20;;;;;;;;;2.33;2.33;;;;;;;;5122793;27;45318;-71
2022/05/22 09:55:46;;;;;;;;;2.67;2.67;;;;;;;;5123045;27;45306;-72
2022/05/22 09:58:30;;;;;;;;;3.00;3.00;;;;;;;;5121334;27;45590;-71
2022/05/22 10:01:04;;;;;;;;;4.00;3.33;;;;;;;;5122808;27;45338;-71
2022/05/22 10:03:35;;;;;;;;;3.33;3.33;;;;;;;;5121044;27;45379;-71
2022/05/22 10:06:12;;;;;;;;;4.00;4.00;;;;;;;;5122695;27;45272;-71
2022/05/22 10:09:01;;;;;;;;;3.33;3.33;;;;;;;;5121251;27;46771;-71
2022/05/22 10:11:39;;;;;;;;;4.00;4.00;;;;;;;;5122499;27;46292;-72
2022/05/22 10:14:04;;;;;;;;;4.33;3.67;;;;;;;;5090447;27;45294;-72
2022/05/22 10:16:29;;;;;;;;;3.00;3.00;;;;;;;;5113273;27;45336;-72
2022/05/22 10:18:55;;;;;;;;;8.00;5.00;;;;;;;;5122519;27;45316;-72
2022/05/22 10:21:25;;;;;;;;;6.67;6.00;;;;;;;;5122180;27;46184;-72
2022/05/22 10:23:50;;;;;;;;;3.67;3.67;;;;;;;;5122440;27;45383;-72
2022/05/22 10:26:34;;;;;;;;;4.00;4.00;;;;;;;;5121192;27;45367;-72
2022/05/22 10:29:03;;;;;;;;;2.33;2.33;;;;;;;;5122437;27;45580;-72
2022/05/22 10:31:34;;;;;;;;;3.67;3.00;;;;;;;;5122212;27;45333;-72
2022/05/22 10:34:14;;;;;;;;;4.00;4.00;;;;;;;;5122165;27;45388;-72
2022/05/22 10:36:45;;;;;;;;;5.67;5.67;;;;;;;;5122225;27;45456;-71
2022/05/22 10:39:11;;;;;;;;;3.67;3.33;;;;;;;;5122017;27;45448;-71
2022/05/22 10:44:40;;;;;;;;;5.67;5.00;;;;;;;;5121932;27;45457;-71
2022/05/22 10:47:05;;;;;;;;;5.33;5.33;;;;;;;;5122292;27;45429;-72
2022/05/22 10:49:44;;;;;;;;;4.33;4.33;;;;;;;;5105292;27;45308;-71
2022/05/22 10:52:11;;;;;;;;;4.33;4.33;;;;;;;;5096438;27;47228;-71
2022/05/22 10:54:44;;;;;;;;;5.33;5.33;;;;;;;;5085214;27;45484;-71
2022/05/22 10:57:14;;;;;;;;;5.00;4.00;;;;;;;;5079769;28;45259;-71
2022/05/22 10:59:40;;;;;;;;;4.00;4.00;;;;;;;;5084753;27;45509;-71
2022/05/22 11:02:13;;;;;;;;;3.33;3.33;;;;;;;;5099137;27;45274;-70
2022/05/22 11:04:41;;;;;;;;;5.00;4.33;;;;;;;;5099720;27;45348;-70
2022/05/22 11:07:07;;;;;;;;;4.67;4.67;;;;;;;;5101029;27;45499;-70
2022/05/22 11:09:49;;;;;;;;;5.67;4.67;;;;;;;;5101189;27;45356;-70
2022/05/22 11:12:22;;;;;;;;;6.67;5.00;;;;;;;;5099585;27;48026;-70
2022/05/22 11:14:47;;;;;;;;;5.33;5.33;;;;;;;;5100483;27;45883;-71
2022/05/22 11:17:20;;;;;;;;;6.00;5.00;;;;;;;;5121546;27;45427;-71
2022/05/22 11:19:47;;;;;;;;;6.00;5.00;;;;;;;;5121414;27;45223;-71
2022/05/22 11:22:58;;;;;;;;;6.67;6.67;;;;;;;;5081807;27;45339;-72
2022/05/22 11:25:23;;;;;;;;;6.33;6.00;;;;;;;;5095293;27;45324;-72
2022/05/22 11:28:06;;;;;;;;;5.00;5.00;;;;;;;;5100158;27;45334;-71
2022/05/22 11:30:41;;;;;;;;;6.00;5.67;;;;;;;;5100836;27;45312;-70
2022/05/22 11:33:15;;;;;;;;;5.00;5.00;;;;;;;;5098799;27;47041;-71
2022/05/22 11:35:40;;;;;;;;;5.00;5.00;;;;;;;;5099267;27;45451;-73
2022/05/22 11:38:05;;;;;;;;;5.33;5.33;;;;;;;;5100530;27;45318;-71
2022/05/22 11:40:46;;;;;;;;;9.67;7.67;;;;;;;;5099003;27;45948;-71
2022/05/22 11:43:44;;;;;;;;;12.67;12.67;;;;;;;;5100586;27;45538;-71
2022/05/22 11:46:19;;;;;;;;;5.33;5.33;;;;;;;;5100520;27;45362;-71
2022/05/22 11:48:44;;;;;;;;;11.00;8.00;;;;;;;;5099101;27;45411;-71
2022/05/22 11:51:28;;;;;;;;;5.33;5.33;;;;;;;;5098881;27;46017;-71
2022/05/22 11:54:02;;;;;;;;;10.00;9.67;;;;;;;;5079543;27;46603;-71
2022/05/22 11:56:52;;;;;;;;;8.00;8.00;;;;;;;;5085245;27;45332;-72
2022/05/22 11:59:17;;;;;;;;;18.00;17.00;;;;;;;;5100335;27;45334;-71
2022/05/22 12:02:01;;;;;;;;;26.67;26.33;;;;;;;;5100088;27;45306;-71
2022/05/22 12:04:41;;;;;;;;;27.33;27.00;;;;;;;;5100023;27;45379;-71
2022/05/22 12:07:27;;;;;;;;;18.00;18.00;;;;;;;;5098625;27;45313;-71
2022/05/22 12:10:02;;;;;;;;;9.00;8.33;;;;;;;;5100035;27;45320;-72
2022/05/22 12:12:44;;;;;;;;;13.00;12.00;;;;;;;;5099982;27;45313;-71
2022/05/22 12:15:28;;;;;;;;;5.00;5.00;;;;;;;;5104848;27;45369;-71
2022/05/22 12:17:58;;;;;;;;;7.67;7.67;;;;;;;;5118823;27;45294;-71
2022/05/22 12:20:29;;;;;;;;;5.67;5.33;;;;;;;;5108047;27;45316;-71
2022/05/22 12:23:13;;;;;;;;;4.00;3.33;;;;;;;;5099778;27;45273;-71
2022/05/22 12:25:41;;;;;;;;;3.00;2.00;;;;;;;;5098481;27;48212;-71
2022/05/22 12:28:16;;;;;;;;;3.00;3.00;;;;;;;;5099920;27;45282;-72
2022/05/22 12:30:42;;;;;;;;;3.00;3.00;;;;;;;;5083932;27;45290;-71
2022/05/22 12:33:09;;;;;;;;;3.00;3.00;;;;;;;;5077570;28;47014;-70
2022/05/22 12:35:36;;;;;;;;;16.33;16.33;;;;;;;;5078692;27;45386;-69
2022/05/22 12:38:02;;;;;;;;;9.33;9.00;;;;;;;;5079677;27;45331;-72
2022/05/22 12:40:46;;;;;;;;;3.67;3.67;;;;;;;;5081249;27;45391;-70
2022/05/22 12:43:14;;;;;;;;;5.00;5.00;;;;;;;;5096869;27;45739;-70
2022/05/22 12:45:39;;;;;;;;;1.00;1.00;;;;;;;;5099694;27;46095;-71
2022/05/22 12:48:09;;;;;;;;;4.67;4.67;;;;;;;;5099759;27;45337;-70
2022/05/22 12:50:43;;;;;;;;;3.00;3.00;;;;;;;;5099846;27;45315;-70
2022/05/22 12:53:16;;;;;;;;;3.00;3.00;;;;;;;;5099335;27;45286;-71
2022/05/22 12:55:41;;;;;;;;;3.00;3.00;;;;;;;;5098261;27;46212;-72
2022/05/22 12:58:26;;;;;;;;;2.00;2.00;;;;;;;;5088131;27;45344;-72
2022/05/22 13:00:51;;;;;;;;;2.33;2.33;;;;;;;;5077937;28;45294;-73
2022/05/22 13:03:32;;;;;;;;;3.00;3.00;;;;;;;;5078703;27;45270;-71
2022/05/22 13:06:04;;;;;;;;;2.33;1.67;;;;;;;;5078873;28;46338;-72
2022/05/22 13:08:36;;;;;;;;;4.33;2.67;;;;;;;;5084863;27;45493;-71
2022/05/22 13:11:06;;;;;;;;;7.00;5.00;;;;;;;;5077710;28;45400;-72
2022/05/22 13:13:34;;;;;;;;;3.00;3.00;;;;;;;;5077130;27;45634;-72
2022/05/22 13:16:04;;;;;;;;;3.33;3.33;;;;;;;;5101746;27;46390;-72
2022/05/22 13:18:30;;;;;;;;;2.00;2.00;;;;;;;;5119042;27;45868;-72
2022/05/22 13:20:57;;;;;;;;;3.00;3.00;;;;;;;;5119019;27;45438;-72
2022/05/22 13:23:22;;;;;;;;;4.00;4.00;;;;;;;;5118747;27;45850;-72
2022/05/22 13:25:49;;;;;;;;;3.67;3.33;;;;;;;;5119183;27;46116;-72
2022/05/22 13:28:25;;;;;;;;;5.33;4.33;;;;;;;;5119586;27;45295;-72
2022/05/22 13:30:59;;;;;;;;;3.00;3.00;;;;;;;;5120069;27;45341;-72
2022/05/22 13:33:24;;;;;;;;;3.00;3.00;;;;;;;;5119350;27;45503;-72
2022/05/22 13:36:13;;;;;;;;;2.00;2.00;;;;;;;;5119429;27;45520;-72
2022/05/22 13:38:38;;;;;;;;;4.00;4.00;;;;;;;;5118748;27;45544;-73
2022/05/22 13:41:22;;;;;;;;;2.33;2.33;;;;;;;;5123423;27;45495;-72
2022/05/22 13:44:03;;;;;;;;;4.00;4.00;;;;;;;;5123111;27;45610;-73
2022/05/22 13:46:41;;;;;;;;;3.00;3.00;;;;;;;;5123047;27;45391;-72
2022/05/22 13:49:39;;;;;;;;;3.00;3.00;;;;;;;;5121706;27;45481;-72
2022/05/22 13:52:34;;;;;;;;;2.00;2.00;;;;;;;;5110374;27;45439;-72
2022/05/22 13:55:12;;;;;;;;;2.33;2.33;;;;;;;;5122866;27;45279;-72
2022/05/22 13:57:39;;;;;;;;;3.00;3.00;;;;;;;;5122883;27;45429;-72
2022/05/22 14:00:07;;;;;;;;;3.00;3.00;;;;;;;;5122834;27;45355;-72
2022/05/22 14:02:47;;;;;;;;;4.33;4.33;;;;;;;;5123213;27;45365;-72
2022/05/22 14:05:13;;;;;;;;;2.33;2.00;;;;;;;;5122518;27;45412;-72
2022/05/22 14:07:46;;;;;;;;;4.00;4.00;;;;;;;;5122567;27;45441;-72
2022/05/22 14:10:11;;;;;;;;;2.67;2.67;;;;;;;;5122762;27;45351;-73
2022/05/22 14:12:41;;;;;;;;;2.67;2.67;;;;;;;;5122982;27;45254;-72
2022/05/22 14:15:17;;;;;;;;;2.00;2.00;;;;;;;;5117763;27;45433;-72
2022/05/22 14:17:43;;;;;;;;;4.00;2.67;;;;;;;;5101933;27;46448;-72
2022/05/22 14:20:15;;;;;;;;;4.00;3.00;;;;;;;;5101727;27;45370;-72
2022/05/22 14:22:40;;;;;;;;;3.00;3.00;;;;;;;;5102075;27;45360;-72
2022/05/22 14:25:07;;;;;;;;;4.67;4.67;;;;;;;;5101811;27;45310;-72
2022/05/22 14:27:49;;;;;;;;;3.67;3.67;;;;;;;;5101845;27;46024;-72
2022/05/22 14:30:20;;;;;;;;;4.00;4.00;;;;;;;;5101885;27;45328;-72
2022/05/22 14:32:48;;;;;;;;;4.00;3.00;;;;;;;;5101717;27;45347;-72
2022/05/22 14:35:16;;;;;;;;;2.00;2.00;;;;;;;;5101437;27;45594;-72
2022/05/22 14:37:42;;;;;;;;;5.00;5.00;;;;;;;;5100166;27;47144;-72
2022/05/22 14:40:24;;;;;;;;;3.00;3.00;;;;;;;;5101576;27;45305;-72
2022/05/22 14:42:57;;;;;;;;;3.00;3.00;;;;;;;;5101794;27;45469;-72
2022/05/22 14:45:26;;;;;;;;;4.00;2.00;;;;;;;;5101312;27;45254;-72
2022/05/22 14:47:51;;;;;;;;;4.00;4.00;;;;;;;;5101513;27;45280;-72
2022/05/22 14:50:18;;;;;;;;;3.67;2.33;;;;;;;;5099997;27;45274;-73
2022/05/22 14:52:48;;;;;;;;;2.67;2.33;;;;;;;;5101466;27;45228;-72
2022/05/22 14:55:24;;;;;;;;;3.67;3.00;;;;;;;;5099733;27;46526;-72
2022/05/22 14:58:06;;;;;;;;;3.00;3.00;;;;;;;;5099954;27;46209;-72
2022/05/22 15:00:34;;;;;;;;;1.00;1.00;;;;;;;;5101248;27;45313;-72
2022/05/22 15:03:11;;;;;;;;;4.00;3.00;;;;;;;;5101606;27;45416;-72
2022/05/22 15:05:41;;;;;;;;;3.00;3.00;;;;;;;;5100983;27;45367;-72